Westbury, New York
Current Conditions -  °F | °C
As of 11:53 AM on Saturday 20 Dec 2014 (Local Time) from KFRG Reporting Station
Overcast Overcast  
Wind Chill: 26°   Ceiling: 2600
Heat Index: 32°   Visibility: 10mi
Dew Point: 21°   Wind: 7mph
Humidity: 64%   Direction: 290°WNW
Pressure: 30.28"   Gusts: NA
Location:  40.76°N, 73.59°W
Report Text: KFRG 201653Z 29006KT 10SM OVC026 00/M06 A3028 RMK AO2 SLP255 T00001061
Loading
Personal Weather Stations






























Interactive Weather Map New forecast layout! Learn more

10-Day Weather Forecast

Advertisements
Track Severe Weather on mobile